Terminal Aerodrome Forecast
Issued by NWS

Home | Current Version | Previous Version | Text Only | Print | Product List | Glossary On
Versions: 1 2 3 4 5 6 7 8 9 10 11 12 13 14 15 16 17 18 19 20 21 22 23 24 25 26 27 28 29 30 31
000
FTUS41 KCTP 170406 AAB
TAFBFD
TAF AMD
KBFD 170406Z 1704/1724 VRB04KT 6SM BR SCT004 BKN035
      TEMPO 1704/1708 5SM BR BKN004 OVC025
     FM170800 VRB03KT 5SM BR OVC007
     FM171300 VRB03KT P6SM BKN015 OVC025
     FM171800 17004KT P6SM OVC025=

USA.gov is the U.S. government's official web portal to all federal, state and local government web resources and services.